METAR Data
IDs: Format: Raw Decoded Include TAF

Data at: 0319 UTC 25 Feb 2021

LYBE 250300Z 07003KT 2000 0600NE R12/P2000N R30/P2000N BCFG BR NSC 04/04 Q1035 TEMPO 0600 FG